TOURFACTS.DK  
Stats and Facts from Tour de France.

Tour de France 2019 starts in 348 days
  Riders   Stages   Teams   Summits   Yearly  


 
Search by year

After 2018 - Stage 14:
 15000 starters.
  5163 different riders.
  639 teams.
  2246 stages.
  456 restdays.
  441957.60 km.
  5678 abandonnees.


Top 3
GC
Christopher Froome86:20:55
Rigoberto Urán86:21:49
Romain Bardet86:23:15
Climb
Warren Barguil169 pt.
Primoz Roglic80 pt.
Thomas De Gendt64 pt.
Sprint
Michael Matthews359 pt.
André Greipel234 pt.
Edvald Boasson Hagen220 pt.
Youth
Simon Yates86:27:09
Louis Meintjes86:29:15
Emanuel Buchmann86:54:16
Facts from Tour de France 1994
  |   Stages.  |   Stage winners.  |   Days in yellow  |   Average speed.  |   Route.  |   Teams.  |   All riders.  |   Rookies.  |  

  |   Withdrawls.  |   GC.  |   Polka  |   Green  |   White  |   Summits. (In tour)  |   Miscellaneous.  |  

Stage 19 on July 22nd. 1994
         Owning:    Miguel Indurain    
Pick a stage:  Pro 1 2 3 4 5 6 7 8 9 10 11 12 13 14 15 16 17 18 19 20 21
From: Cluses    To: Morzine-AvoriazDist:47.50 km.
Cat: 3Côte de Chatillon sur ClusesURSPiotr Ugrumov
10 points
 
Cat: 2Côte de GetsURSPiotr Ugrumov
20 points
 
Cat: 1Avoriaz - MorzineURSPiotr Ugrumov
30 points
 

Average speed for all riders in stage:  30,692 km./hr.
    Place:Name:Team:Time:Km/h:
URSPiotr UgrumovITAGewiss-Ballan01:22:59  +  00:00:00=34,344 
ITAMarco PantaniITACarrera Jeans-Tassoni01:24:37  +  00:01:38=33,681 
ESPMiguel IndurainESPBanesto01:26:15  +  00:03:16=33,043 
4 FRALuc LeblancESPFestina-Andorra01:26:49  +  00:03:50=32,828 
5 FRACharly MottetFRANovemail-Histor-Laser Computer01:27:11  +  00:04:12=32,690 
6 ITAEnrico ZainaITAGewiss-Ballan01:27:16  +  00:04:17=32,659 
7 URSVladimir PoulnikovITACarrera Jeans-Tassoni01:27:25  +  00:04:26=32,602 
8 FRAJean-François BernardESPBanesto01:27:30  +  00:04:31=32,571 
9 SUIAlex ZülleESPO.N.C.E.01:27:48  +  00:04:49=32,460 
10 ITARoberto ContiITALampre-Panaria01:27:53  +  00:04:54=32,429 
11 DENRolf SřrensenITAGB-MG Maglificio01:27:53  +  00:04:54=32,429 
12 URSVladislav BobrikITAGewiss-Ballan01:28:08  +  00:05:09=32,337 
13 ITAGianluca BortolamiBELMapei-Clas01:28:17  +  00:05:18=32,282 
14 ITAMassimo GhirottoITAZG Mobili-Selle Italia01:28:28  +  00:05:29=32,216 
15 ITAGiancarlo PeriniITAZG Mobili-Selle Italia01:28:55  +  00:05:56=32,052 
16 DENBjarne RiisITAGewiss-Ballan01:29:00  +  00:06:01=32,022 
17 ITAFranco ChioccioliITAMercatone Uno-Medeghini01:29:02  +  00:06:03=32,010 
18 MARRichard VirenqueESPFestina-Andorra01:29:03  +  00:06:04=32,004 
19 URSViatcheslav EkimovBELWordperfect01:29:11  +  00:06:12=31,957 
20 ESPAbraham OlanoBELMapei-Clas01:29:13  +  00:06:14=31,945 
21 URSArturas KasputisFRAChazal-MBK-Konig01:29:46  +  00:06:47=31,749 
22 DENJesper SkibbyNLDTVM-Bison01:29:54  +  00:06:55=31,702 
23 NEDErik BreukinkESPO.N.C.E.01:29:56  +  00:06:57=31,690 
24 ITAAlberto ElliITAGB-MG Maglificio01:30:02  +  00:07:03=31,655 
25 ITABruno CenghialtaITAGewiss-Ballan01:30:05  +  00:07:06=31,637 
26 GERUdo BöltsDEUTelecom01:30:21  +  00:07:22=31,544 
27 NORDag Otto LauritzenNLDTVM-Bison01:30:26  +  00:07:27=31,515 
28 ITAFranco VonaITAGB-MG Maglificio01:30:26  +  00:07:27=31,515 
29 SUILaurent DufauxESPO.N.C.E.01:30:28  +  00:07:29=31,503 
30 FRAThomas DavyFRACastorama01:30:30  +  00:07:31=31,492 
31 GERRolf AldagDEUTelecom01:30:30  +  00:07:31=31,492 
32 ESPArsenio GonzálezBELMapei-Clas01:30:30  +  00:07:31=31,492 
33 SUIJörg MüllerBELMapei-Clas01:30:32  +  00:07:33=31,480 
34 URSDimitri ZhdanovITAPolti-Vaporetto01:30:50  +  00:07:51=31,376 
35 ESPFernando EscartinBELMapei-Clas01:30:50  +  00:07:51=31,376 
36 FRAPascal LinoESPFestina-Andorra01:30:53  +  00:07:54=31,359 
37 ITAGiorgio FurlanITAGewiss-Ballan01:30:56  +  00:07:57=31,342 
38 DDRGerd AudehmDEUTelecom01:30:59  +  00:08:00=31,324 
39 FRAEddy SeigneurFRAGan01:31:00  +  00:08:01=31,319 
40 FRAJean-Claude BagotESPFestina-Andorra01:31:09  +  00:08:10=31,267 
41 COLFederico FernandezESPKelme-Avianca01:31:15  +  00:08:16=31,233 
42 BELJim Van De LaerBELLotto-Veta-Caloi01:31:16  +  00:08:17=31,227 
43 COLAlvaro MejiaUSAMotorola01:31:30  +  00:08:31=31,148 
44 ITARemo RossiITACarrera Jeans-Tassoni01:31:31  +  00:08:32=31,142 
45 MEXMiguel ArroyoFRAChazal-MBK-Konig01:31:52  +  00:08:53=31,023 
46 FRAPhilippe LouviotFRANovemail-Histor-Laser Computer01:31:53  +  00:08:54=31,018 
47 SUIBeat ZbergITACarrera Jeans-Tassoni01:32:03  +  00:09:04=30,961 
48 DENBo HamburgerNLDTVM-Bison01:32:06  +  00:09:07=30,945 
49 FRAÉric CaritouxFRAChazal-MBK-Konig01:32:11  +  00:09:12=30,917 
50 COLNelson RodriguezITAZG Mobili-Selle Italia01:32:12  +  00:09:13=30,911 
51 ITAMario ChiesaITACarrera Jeans-Tassoni01:32:19  +  00:09:20=30,872 
52 ITADavide PeronaITAZG Mobili-Selle Italia01:32:41  +  00:09:42=30,750 
53 COLHernán BuenahoraESPKelme-Avianca01:32:43  +  00:09:44=30,739 
54 FRARonan PensecFRANovemail-Histor-Laser Computer01:32:48  +  00:09:49=30,711 
55 DDROlaf LudwigDEUTelecom01:32:50  +  00:09:51=30,700 
56 ESPFederico EchaveBELMapei-Clas01:33:01  +  00:10:02=30,640 
57 URSSerguei OutschakovITAPolti-Vaporetto01:33:03  +  00:10:04=30,629 
58 FRAThierry GouvenouFRAGan01:33:10  +  00:10:11=30,590 
59 ITADario BottaroITAGewiss-Ballan01:33:12  +  00:10:13=30,579 
60 AUSNeil StephensESPO.N.C.E.01:33:13  +  00:10:14=30,574 
61 FRAPascal HerveESPFestina-Andorra01:33:18  +  00:10:19=30,547 
62 FRAChristophe ManinFRAChazal-MBK-Konig01:33:21  +  00:10:22=30,530 
63 ESPÁngel EdoESPKelme-Avianca01:33:25  +  00:10:26=30,508 
64 ITAFlavio VanzellaITAGB-MG Maglificio01:33:25  +  00:10:26=30,508 
65 BELHendrik RedantITAZG Mobili-Selle Italia01:33:31  +  00:10:32=30,476 
66 ITAMarco ZenITALampre-Panaria01:33:33  +  00:10:34=30,465 
67 ESPRaúl AlcaláUSAMotorola01:33:37  +  00:10:38=30,443 
68 DDRUwe RaabDEUTelecom01:33:39  +  00:10:40=30,432 
69 ESPJosé UriarteESPBanesto01:33:56  +  00:10:57=30,341 
70 SUIRolf JärmannITAGB-MG Maglificio01:33:56  +  00:10:57=30,341 
71 ESPVicente AparicioESPBanesto01:34:00  +  00:11:01=30,319 
72 ITAOscar PelliccioliITAPolti-Vaporetto01:34:03  +  00:11:04=30,303 
73 DDRJens HeppnerDEUTelecom01:34:14  +  00:11:15=30,244 
74 FRAFrançois SimonFRACastorama01:34:15  +  00:11:16=30,239 
75 ITASilvio MartinelloITAMercatone Uno-Medeghini01:34:15  +  00:11:16=30,239 
76 ENGPhil AndersonUSAMotorola01:34:18  +  00:11:19=30,223 
77 URSDjamolidine AbduzhaparovITAPolti-Vaporetto01:34:24  +  00:11:25=30,191 
78 NEDGerrit De VriesFRANovemail-Histor-Laser Computer01:34:24  +  00:11:25=30,191 
79 ITAGiovanni FidanzaITAPolti-Vaporetto01:34:27  +  00:11:28=30,175 
80 NORAtle KvĺlsvollBELWordperfect01:34:33  +  00:11:34=30,143 
81 BELLuc RoosenBELLotto-Veta-Caloi01:34:38  +  00:11:39=30,116 
82 NZLStephen SwartUSAMotorola01:34:41  +  00:11:42=30,100 
83 DDRMario KummerDEUTelecom01:34:43  +  00:11:44=30,090 
84 URSAndrei TchmilBELLotto-Veta-Caloi01:34:45  +  00:11:46=30,079 
85 BELGuy NulensFRANovemail-Histor-Laser Computer01:34:51  +  00:11:52=30,047 
86 ESPFrancisco CabelloESPKelme-Avianca01:34:52  +  00:11:53=30,042 
87 ITAAndrea PeronITAPolti-Vaporetto01:34:56  +  00:11:57=30,021 
88 FRABruno ThiboutFRACastorama01:35:01  +  00:12:02=29,995 
89 USAFrankie AndreuUSAMotorola01:35:05  +  00:12:06=29,974 
90 BELMichel DerniesUSAMotorola01:35:14  +  00:12:15=29,926 
91 NEDErwin NijboerESPBanesto01:35:15  +  00:12:16=29,921 
92 ENGSean YatesUSAMotorola01:35:20  +  00:12:21=29,895 
93 ITAGuido BontempiITAGewiss-Ballan01:35:27  +  00:12:28=29,859 
94 ITAMauro-Antonio SantaromitaITAZG Mobili-Selle Italia01:35:32  +  00:12:33=29,833 
95 FRAThierry MarieFRACastorama01:35:38  +  00:12:39=29,801 
96 AUSStephen HodgeESPFestina-Andorra01:35:45  +  00:12:46=29,765 
97 ESPAlberto LeanizbarrutiaESPO.N.C.E.01:35:54  +  00:12:55=29,718 
98 BELMarc SergeantFRANovemail-Histor-Laser Computer01:36:11  +  00:13:12=29,631 
99 SVKJán SvoradaITALampre-Panaria01:36:13  +  00:13:14=29,621 
100 BELCarlo BomansITAGB-MG Maglificio01:36:14  +  00:13:15=29,616 
101 POLCesary ZamanaESPKelme-Avianca01:36:14  +  00:13:15=29,616 
102 FRAGérard RuéESPBanesto01:36:30  +  00:13:31=29,534 
103 BELJohan MuseeuwITAGB-MG Maglificio01:36:35  +  00:13:36=29,508 
104 ESPRamon GonzalezESPBanesto01:36:47  +  00:13:48=29,447 
105 ESPHerminio ZabalaESPO.N.C.E.01:36:53  +  00:13:54=29,417 
106 BELPeter De ClercqBELLotto-Veta-Caloi01:36:59  +  00:14:00=29,386 
107 COLAngel OchoaESPKelme-Avianca01:37:03  +  00:14:04=29,366 
108 COLJulio-César CadenaESPKelme-Avianca01:37:08  +  00:14:09=29,341 
109 FRAPascal ChanteurFRAChazal-MBK-Konig01:37:19  +  00:14:20=29,286 
110 FRAFrancis MoreauFRAGan01:37:22  +  00:14:23=29,271 
111 NEDJohn TalenITAMercatone Uno-Medeghini01:37:23  +  00:14:24=29,266 
112 NEDRob MuldersBELWordperfect01:37:33  +  00:14:34=29,216 
113 GERChristian HennDEUTelecom01:37:39  +  00:14:40=29,186 
114 NEDErik DekkerBELWordperfect01:37:42  +  00:14:43=29,171 
115 ESPMelchor MauriESPBanesto01:37:46  +  00:14:47=29,151 
116 BELRudy VerdonckBELLotto-Veta-Caloi01:37:48  +  00:14:49=29,141 
117 ITADavide CassaniITAGB-MG Maglificio01:39:12  +  00:16:13=28,730 
118 ITAEros PoliITAMercatone Uno-Medeghini01:39:58  +  00:16:59=28,510 
119 BELMarc WautersBELWordperfect01:41:44  +  00:18:45=28,014 

Withdrawls: 2
 
Rider
Team
Reason
169  BELMarc SergeantFRANovemail-Histor-Laser ComputerDid not finish
191  URSAndrei TchmilBELLotto-Veta-CaloiDid not finish

Todays birthdays.

1877  Antoine Perrichon
1878  Auguste Berthault
1911  Théo Herckenrath
1924  Carlo Lafranchi
1931  Armand Di Caro
1937  Jean-Claude Lebaube
1951  Giovanni Battaglin
1961  Pascal Jules
1962  Jean-Claude Leclercq
1976  Janek Tombak
1978  Francisco Pérez
1983  Dries Devenyns




Visits: